GLO1200 SBSP-SBJV
Flight info
| Callsign | GLO1200 |
|---|---|
| Flight time | 0h 40m |
| Altitude | 26000 |
| Route | SOVSI UZ85 RAXIT |
| Aircraft | B738/M-SDFGIKLORWXY/LB1 |
Departure
| Time | 2026-04-16 12:49 |
|---|---|
| Airport | Congonhas–Deputado Freitas Nobre Airport (SBSP) |
Arrival
| Time | 2026-04-16 13:30 |
|---|---|
| Airport | Lauro Carneiro de Loyola Airport (SBJV) |
| Time | Latitude | Longitude | Altitude | Speed | Heading |
|---|---|---|---|---|---|
| 2026-04-16 12:38 | -23.62781 | -46.65775 | 2600 ft | 0 kts | 237° |
| 2026-04-16 12:43 | -23.62777 | -46.65768 | 2600 ft | 4 kts | 236° |
| 2026-04-16 12:43 | -23.62760 | -46.65749 | 2600 ft | 4 kts | 189° |
| 2026-04-16 12:43 | -23.62740 | -46.65754 | 2600 ft | 4 kts | 155° |
| 2026-04-16 12:44 | -23.62716 | -46.65768 | 2600 ft | 4 kts | 146° |
| 2026-04-16 12:44 | -23.62700 | -46.65780 | 2600 ft | 0 kts | 147° |
| 2026-04-16 12:46 | -23.62745 | -46.65748 | 2600 ft | 11 kts | 148° |
| 2026-04-16 12:46 | -23.62809 | -46.65704 | 2600 ft | 11 kts | 147° |
| 2026-04-16 12:46 | -23.62850 | -46.65637 | 2601 ft | 11 kts | 121° |
| 2026-04-16 12:46 | -23.62912 | -46.65585 | 2602 ft | 14 kts | 147° |
| 2026-04-16 12:47 | -23.62999 | -46.65528 | 2602 ft | 14 kts | 160° |
| 2026-04-16 12:47 | -23.63112 | -46.65482 | 2601 ft | 19 kts | 148° |
| 2026-04-16 12:47 | -23.63223 | -46.65406 | 2601 ft | 19 kts | 147° |
| 2026-04-16 12:47 | -23.63329 | -46.65332 | 2601 ft | 18 kts | 147° |
| 2026-04-16 12:48 | -23.63431 | -46.65261 | 2600 ft | 17 kts | 147° |
| 2026-04-16 12:48 | -23.63503 | -46.65176 | 2599 ft | 16 kts | 85° |
| 2026-04-16 12:48 | -23.63434 | -46.65124 | 2600 ft | 9 kts | 2° |
| 2026-04-16 12:48 | -23.63254 | -46.65239 | 2608 ft | 69 kts | 328° |
| 2026-04-16 12:49 | -23.62608 | -46.65685 | 2604 ft | 148 kts | 328° |
| 2026-04-16 12:49 | -23.61557 | -46.66381 | 2923 ft | 185 kts | 329° |
| 2026-04-16 12:49 | -23.60535 | -46.67114 | 4214 ft | 176 kts | 326° |
| 2026-04-16 12:49 | -23.59834 | -46.68208 | 4981 ft | 181 kts | 289° |
| 2026-04-16 12:50 | -23.59457 | -46.69545 | 5341 ft | 188 kts | 290° |
| 2026-04-16 12:50 | -23.59046 | -46.70905 | 5770 ft | 189 kts | 290° |
| 2026-04-16 12:50 | -23.58606 | -46.72295 | 6191 ft | 206 kts | 291° |
| 2026-04-16 12:50 | -23.58095 | -46.73877 | 6416 ft | 235 kts | 291° |
| 2026-04-16 12:51 | -23.57526 | -46.75621 | 6876 ft | 250 kts | 290° |
| 2026-04-16 12:51 | -23.57275 | -46.77582 | 7168 ft | 281 kts | 260° |
| 2026-04-16 12:51 | -23.58106 | -46.79551 | 7481 ft | 296 kts | 229° |
| 2026-04-16 12:51 | -23.59723 | -46.80921 | 7624 ft | 296 kts | 211° |
| 2026-04-16 12:52 | -23.61487 | -46.82084 | 8436 ft | 297 kts | 210° |
| 2026-04-16 12:52 | -23.63242 | -46.83225 | 9412 ft | 298 kts | 210° |
| 2026-04-16 12:52 | -23.65031 | -46.84375 | 10336 ft | 300 kts | 210° |
| 2026-04-16 12:52 | -23.66872 | -46.85556 | 10878 ft | 318 kts | 210° |
| 2026-04-16 12:53 | -23.68853 | -46.86834 | 11169 ft | 340 kts | 211° |
| 2026-04-16 12:53 | -23.70906 | -46.88164 | 11820 ft | 348 kts | 211° |
| 2026-04-16 12:53 | -23.73000 | -46.89523 | 12550 ft | 353 kts | 211° |
| 2026-04-16 12:53 | -23.75099 | -46.90922 | 13401 ft | 353 kts | 216° |
| 2026-04-16 12:54 | -23.76969 | -46.92652 | 14206 ft | 353 kts | 226° |
| 2026-04-16 12:54 | -23.78513 | -46.94741 | 14969 ft | 355 kts | 235° |
| 2026-04-16 12:54 | -23.79908 | -46.96988 | 15628 ft | 361 kts | 236° |
| 2026-04-16 12:54 | -23.81300 | -46.99296 | 16258 ft | 366 kts | 237° |
| 2026-04-16 12:55 | -23.82700 | -47.01625 | 16936 ft | 369 kts | 237° |
| 2026-04-16 12:55 | -23.84119 | -47.03977 | 17597 ft | 372 kts | 236° |
| 2026-04-16 12:55 | -23.85558 | -47.06348 | 18223 ft | 376 kts | 236° |
| 2026-04-16 12:55 | -23.86999 | -47.08712 | 18809 ft | 379 kts | 236° |
| 2026-04-16 12:56 | -23.88469 | -47.11116 | 19443 ft | 382 kts | 236° |
| 2026-04-16 12:56 | -23.89949 | -47.13534 | 20089 ft | 383 kts | 236° |
| 2026-04-16 12:56 | -23.91440 | -47.15970 | 20670 ft | 386 kts | 237° |
| 2026-04-16 12:56 | -23.92939 | -47.18418 | 21240 ft | 389 kts | 237° |
| 2026-04-16 12:57 | -23.94444 | -47.20877 | 21815 ft | 390 kts | 237° |
| 2026-04-16 12:57 | -23.95954 | -47.23347 | 22499 ft | 388 kts | 237° |
| 2026-04-16 12:57 | -23.97443 | -47.25784 | 23256 ft | 384 kts | 237° |
| 2026-04-16 12:57 | -23.98920 | -47.28200 | 23995 ft | 381 kts | 237° |
| 2026-04-16 12:58 | -24.00390 | -47.30607 | 24623 ft | 380 kts | 237° |
| 2026-04-16 12:58 | -24.01855 | -47.33008 | 25231 ft | 380 kts | 237° |
| 2026-04-16 12:58 | -24.03317 | -47.35406 | 25880 ft | 377 kts | 237° |
| 2026-04-16 12:58 | -24.04774 | -47.37796 | 26109 ft | 376 kts | 237° |
| 2026-04-16 12:59 | -24.06226 | -47.40178 | 26139 ft | 375 kts | 237° |
| 2026-04-16 12:59 | -24.07678 | -47.42560 | 26152 ft | 377 kts | 237° |
| 2026-04-16 12:59 | -24.09148 | -47.44949 | 26154 ft | 378 kts | 234° |
| 2026-04-16 13:00 | -24.12888 | -47.48937 | 26146 ft | 381 kts | 216° |
| 2026-04-16 13:00 | -24.15117 | -47.50506 | 26156 ft | 382 kts | 214° |
| 2026-04-16 13:00 | -24.17376 | -47.52039 | 26150 ft | 382 kts | 213° |
| 2026-04-16 13:00 | -24.19638 | -47.53568 | 26146 ft | 382 kts | 213° |
| 2026-04-16 13:01 | -24.21897 | -47.55105 | 26150 ft | 381 kts | 214° |
| 2026-04-16 13:01 | -24.24145 | -47.56647 | 26148 ft | 381 kts | 214° |
| 2026-04-16 13:01 | -24.26391 | -47.58196 | 26146 ft | 381 kts | 214° |
| 2026-04-16 13:01 | -24.28633 | -47.59748 | 26150 ft | 381 kts | 214° |
| 2026-04-16 13:02 | -24.30877 | -47.61303 | 26145 ft | 381 kts | 214° |
| 2026-04-16 13:02 | -24.33115 | -47.62855 | 26148 ft | 380 kts | 214° |
| 2026-04-16 13:02 | -24.35352 | -47.64410 | 26147 ft | 380 kts | 214° |
| 2026-04-16 13:02 | -24.37587 | -47.65962 | 26149 ft | 380 kts | 214° |
| 2026-04-16 13:03 | -24.39795 | -47.67496 | 26143 ft | 380 kts | 214° |
| 2026-04-16 13:03 | -24.42027 | -47.69049 | 26148 ft | 379 kts | 214° |
| 2026-04-16 13:03 | -24.44197 | -47.70695 | 26147 ft | 379 kts | 218° |
| 2026-04-16 13:03 | -24.46308 | -47.72425 | 26152 ft | 378 kts | 219° |
| 2026-04-16 13:04 | -24.48399 | -47.74181 | 26150 ft | 379 kts | 219° |
| 2026-04-16 13:04 | -24.50489 | -47.75943 | 26146 ft | 379 kts | 219° |
| 2026-04-16 13:04 | -24.52585 | -47.77702 | 26149 ft | 379 kts | 219° |
| 2026-04-16 13:04 | -24.54682 | -47.79453 | 26147 ft | 379 kts | 219° |
| 2026-04-16 13:05 | -24.56788 | -47.81204 | 26149 ft | 379 kts | 219° |
| 2026-04-16 13:05 | -24.58890 | -47.82947 | 26148 ft | 379 kts | 219° |
| 2026-04-16 13:05 | -24.60995 | -47.84691 | 26147 ft | 379 kts | 219° |
| 2026-04-16 13:05 | -24.63109 | -47.86442 | 26149 ft | 379 kts | 219° |
| 2026-04-16 13:06 | -24.65216 | -47.88186 | 26148 ft | 379 kts | 219° |
| 2026-04-16 13:06 | -24.67325 | -47.89932 | 26147 ft | 379 kts | 219° |
| 2026-04-16 13:06 | -24.69429 | -47.91675 | 26149 ft | 379 kts | 219° |
| 2026-04-16 13:06 | -24.71537 | -47.93422 | 26148 ft | 379 kts | 219° |
| 2026-04-16 13:07 | -24.73645 | -47.95169 | 26147 ft | 379 kts | 219° |
| 2026-04-16 13:07 | -24.75755 | -47.96918 | 26151 ft | 379 kts | 219° |
| 2026-04-16 13:07 | -24.77836 | -47.98645 | 26145 ft | 379 kts | 219° |
| 2026-04-16 13:07 | -24.79942 | -48.00394 | 26147 ft | 379 kts | 219° |
| 2026-04-16 13:08 | -24.82048 | -48.02143 | 26043 ft | 381 kts | 219° |
| 2026-04-16 13:08 | -24.84170 | -48.03907 | 25641 ft | 381 kts | 219° |
| 2026-04-16 13:08 | -24.86289 | -48.05668 | 25148 ft | 381 kts | 219° |
| 2026-04-16 13:08 | -24.88402 | -48.07426 | 24604 ft | 381 kts | 219° |
| 2026-04-16 13:09 | -24.90518 | -48.09187 | 24044 ft | 382 kts | 219° |
| 2026-04-16 13:09 | -24.92641 | -48.10953 | 23473 ft | 382 kts | 219° |
| 2026-04-16 13:09 | -24.94763 | -48.12720 | 22879 ft | 383 kts | 219° |
| 2026-04-16 13:09 | -24.96892 | -48.14492 | 22276 ft | 384 kts | 218° |
| 2026-04-16 13:10 | -24.99023 | -48.16269 | 21671 ft | 385 kts | 218° |
| 2026-04-16 13:10 | -25.01166 | -48.18056 | 21071 ft | 386 kts | 218° |
| 2026-04-16 13:10 | -25.03296 | -48.19834 | 20577 ft | 384 kts | 218° |
| 2026-04-16 13:10 | -25.05419 | -48.21606 | 20075 ft | 381 kts | 218° |
| 2026-04-16 13:11 | -25.07527 | -48.23366 | 19586 ft | 379 kts | 218° |
| 2026-04-16 13:11 | -25.09600 | -48.25098 | 19108 ft | 377 kts | 218° |
| 2026-04-16 13:11 | -25.11712 | -48.26860 | 18615 ft | 375 kts | 218° |
| 2026-04-16 13:11 | -25.13755 | -48.28570 | 18140 ft | 372 kts | 218° |
| 2026-04-16 13:12 | -25.15842 | -48.30317 | 17649 ft | 370 kts | 218° |
| 2026-04-16 13:12 | -25.17857 | -48.32003 | 17192 ft | 367 kts | 218° |
| 2026-04-16 13:12 | -25.19880 | -48.33695 | 16879 ft | 363 kts | 218° |
| 2026-04-16 13:12 | -25.21879 | -48.35368 | 16569 ft | 360 kts | 218° |
| 2026-04-16 13:13 | -25.23938 | -48.36956 | 16268 ft | 364 kts | 210° |
| 2026-04-16 13:13 | -25.26255 | -48.38097 | 15973 ft | 367 kts | 199° |
| 2026-04-16 13:13 | -25.28746 | -48.38749 | 15662 ft | 367 kts | 189° |
| 2026-04-16 13:13 | -25.31274 | -48.39090 | 15363 ft | 365 kts | 187° |
| 2026-04-16 13:14 | -25.33786 | -48.39405 | 15062 ft | 363 kts | 187° |
| 2026-04-16 13:14 | -25.36287 | -48.39734 | 14765 ft | 361 kts | 188° |
| 2026-04-16 13:14 | -25.38767 | -48.40081 | 14490 ft | 358 kts | 188° |
| 2026-04-16 13:14 | -25.41230 | -48.40433 | 14214 ft | 356 kts | 188° |
| 2026-04-16 13:15 | -25.43686 | -48.40787 | 13911 ft | 355 kts | 188° |
| 2026-04-16 13:15 | -25.46141 | -48.41140 | 13604 ft | 355 kts | 188° |
| 2026-04-16 13:15 | -25.48583 | -48.41490 | 13290 ft | 354 kts | 188° |
| 2026-04-16 13:15 | -25.50998 | -48.41837 | 12990 ft | 353 kts | 188° |
| 2026-04-16 13:16 | -25.53429 | -48.42186 | 12682 ft | 352 kts | 188° |
| 2026-04-16 13:16 | -25.55854 | -48.42535 | 12362 ft | 350 kts | 188° |
| 2026-04-16 13:16 | -25.58263 | -48.42881 | 12045 ft | 349 kts | 188° |
| 2026-04-16 13:16 | -25.60678 | -48.43228 | 11715 ft | 348 kts | 188° |
| 2026-04-16 13:17 | -25.63077 | -48.43544 | 11410 ft | 345 kts | 186° |
| 2026-04-16 13:17 | -25.65445 | -48.43797 | 11101 ft | 339 kts | 186° |
| 2026-04-16 13:17 | -25.67776 | -48.44029 | 10792 ft | 333 kts | 186° |
| 2026-04-16 13:17 | -25.70065 | -48.44257 | 10498 ft | 327 kts | 186° |
| 2026-04-16 13:18 | -25.72314 | -48.44486 | 10212 ft | 321 kts | 186° |
| 2026-04-16 13:18 | -25.74486 | -48.44710 | 10041 ft | 304 kts | 186° |
| 2026-04-16 13:18 | -25.76527 | -48.44923 | 9865 ft | 289 kts | 186° |
| 2026-04-16 13:18 | -25.78518 | -48.45132 | 9482 ft | 284 kts | 186° |
| 2026-04-16 13:19 | -25.79814 | -48.45269 | 9238 ft | 283 kts | 186° |
| 2026-04-16 13:19 | -25.81785 | -48.45478 | 8963 ft | 286 kts | 185° |
| 2026-04-16 13:19 | -25.83771 | -48.45688 | 8692 ft | 286 kts | 185° |
| 2026-04-16 13:19 | -25.86385 | -48.45964 | 8348 ft | 284 kts | 185° |
| 2026-04-16 13:20 | -25.88346 | -48.46173 | 8079 ft | 282 kts | 185° |
| 2026-04-16 13:20 | -25.89658 | -48.46376 | 7916 ft | 281 kts | 193° |
| 2026-04-16 13:20 | -25.91494 | -48.46999 | 7662 ft | 279 kts | 200° |
| 2026-04-16 13:20 | -25.93314 | -48.47749 | 7392 ft | 278 kts | 201° |
| 2026-04-16 13:21 | -25.95122 | -48.48509 | 7141 ft | 277 kts | 200° |
| 2026-04-16 13:21 | -25.96921 | -48.49255 | 6899 ft | 275 kts | 200° |
| 2026-04-16 13:21 | -25.98720 | -48.49989 | 6636 ft | 274 kts | 200° |
| 2026-04-16 13:21 | -26.00515 | -48.50712 | 6379 ft | 274 kts | 200° |
| 2026-04-16 13:22 | -26.02305 | -48.51425 | 6133 ft | 273 kts | 200° |
| 2026-04-16 13:22 | -26.04093 | -48.52137 | 5893 ft | 272 kts | 200° |
| 2026-04-16 13:22 | -26.05872 | -48.52843 | 5638 ft | 271 kts | 200° |
| 2026-04-16 13:22 | -26.07640 | -48.53544 | 5375 ft | 269 kts | 199° |
| 2026-04-16 13:23 | -26.09392 | -48.54237 | 5139 ft | 266 kts | 199° |
| 2026-04-16 13:23 | -26.11131 | -48.54924 | 4895 ft | 264 kts | 199° |
| 2026-04-16 13:23 | -26.12851 | -48.55603 | 4651 ft | 261 kts | 199° |
| 2026-04-16 13:23 | -26.14540 | -48.56271 | 4401 ft | 253 kts | 199° |
| 2026-04-16 13:24 | -26.16118 | -48.57048 | 4147 ft | 244 kts | 218° |
| 2026-04-16 13:24 | -26.17278 | -48.58313 | 3994 ft | 229 kts | 227° |
| 2026-04-16 13:24 | -26.18376 | -48.59566 | 3774 ft | 218 kts | 226° |
| 2026-04-16 13:24 | -26.19415 | -48.60738 | 3544 ft | 209 kts | 226° |
| 2026-04-16 13:25 | -26.20431 | -48.61880 | 3381 ft | 205 kts | 226° |
| 2026-04-16 13:25 | -26.21411 | -48.62985 | 3203 ft | 195 kts | 226° |
| 2026-04-16 13:25 | -26.22328 | -48.64017 | 3039 ft | 187 kts | 226° |
| 2026-04-16 13:25 | -26.23280 | -48.64969 | 2870 ft | 182 kts | 219° |
| 2026-04-16 13:26 | -26.24270 | -48.65844 | 2739 ft | 183 kts | 219° |
| 2026-04-16 13:26 | -26.25264 | -48.66727 | 2568 ft | 182 kts | 219° |
| 2026-04-16 13:26 | -26.26249 | -48.67605 | 2357 ft | 179 kts | 220° |
| 2026-04-16 13:26 | -26.27079 | -48.68593 | 2134 ft | 169 kts | 237° |
| 2026-04-16 13:27 | -26.27540 | -48.69725 | 1939 ft | 156 kts | 257° |
| 2026-04-16 13:27 | -26.27652 | -48.70890 | 1748 ft | 149 kts | 273° |
| 2026-04-16 13:27 | -26.27502 | -48.72009 | 1592 ft | 142 kts | 285° |
| 2026-04-16 13:27 | -26.27148 | -48.73042 | 1398 ft | 143 kts | 300° |
| 2026-04-16 13:28 | -26.26596 | -48.73970 | 1217 ft | 144 kts | 306° |
| 2026-04-16 13:28 | -26.25982 | -48.74854 | 1022 ft | 144 kts | 308° |
| 2026-04-16 13:28 | -26.25356 | -48.75720 | 828 ft | 144 kts | 309° |
| 2026-04-16 13:28 | -26.24731 | -48.76587 | 642 ft | 142 kts | 309° |
| 2026-04-16 13:29 | -26.24117 | -48.77431 | 457 ft | 141 kts | 309° |
| 2026-04-16 13:29 | -26.23504 | -48.78280 | 265 ft | 140 kts | 309° |
| 2026-04-16 13:29 | -26.22889 | -48.79126 | 62 ft | 141 kts | 309° |
| 2026-04-16 13:29 | -26.22303 | -48.79936 | 24 ft | 122 kts | 309° |
| 2026-04-16 13:30 | -26.22018 | -48.80330 | 22 ft | 13 kts | 309° |
| 2026-04-16 13:30 | -26.22036 | -48.80376 | 21 ft | 7 kts | 180° |
| 2026-04-16 13:30 | -26.22085 | -48.80373 | 20 ft | 7 kts | 178° |
| 2026-04-16 13:30 | -26.22131 | -48.80358 | 20 ft | 7 kts | 148° |
| 2026-04-16 13:31 | -26.22168 | -48.80315 | 20 ft | 8 kts | 128° |
| 2026-04-16 13:31 | -26.22201 | -48.80269 | 20 ft | 8 kts | 130° |
| 2026-04-16 13:31 | -26.22234 | -48.80225 | 20 ft | 7 kts | 129° |
| 2026-04-16 13:31 | -26.22260 | -48.80178 | 20 ft | 7 kts | 112° |
| 2026-04-16 13:32 | -26.22292 | -48.80130 | 20 ft | 8 kts | 129° |
| 2026-04-16 13:32 | -26.22341 | -48.80116 | 20 ft | 8 kts | 211° |
| 2026-04-16 13:32 | -26.22367 | -48.80139 | 20 ft | 2 kts | 219° |
| 2026-04-16 13:32 | -26.22371 | -48.80142 | 22 ft | 0 kts | 219° |